sensor_id;sensor_type;location;lat;lon;timestamp;P1;durP1;ratioP1;P2;durP2;ratioP2
67554;SDS011;54385;53.516;49.456;2023-07-13T00:00:08;1.05;;;0.75;;
67554;SDS011;54385;53.516;49.456;2023-07-13T00:02:35;0.98;;;0.60;;
67554;SDS011;54385;53.516;49.456;2023-07-13T00:05:02;1.10;;;0.75;;
67554;SDS011;54385;53.516;49.456;2023-07-13T00:07:29;0.75;;;0.52;;
67554;SDS011;54385;53.516;49.456;2023-07-13T00:09:57;0.88;;;0.63;;
67554;SDS011;54385;53.516;49.456;2023-07-13T00:14:57;1.85;;;0.82;;
67554;SDS011;54385;53.516;49.456;2023-07-13T00:17:28;1.02;;;0.70;;
67554;SDS011;54385;53.516;49.456;2023-07-13T00:19:55;0.93;;;0.70;;
67554;SDS011;54385;53.516;49.456;2023-07-13T00:22:22;1.10;;;0.70;;
67554;SDS011;54385;53.516;49.456;2023-07-13T00:24:52;1.38;;;0.77;;
67554;SDS011;54385;53.516;49.456;2023-07-13T00:27:22;1.23;;;0.75;;
67554;SDS011;54385;53.516;49.456;2023-07-13T00:29:49;0.65;;;0.60;;
67554;SDS011;54385;53.516;49.456;2023-07-13T00:32:15;1.48;;;0.77;;
67554;SDS011;54385;53.516;49.456;2023-07-13T00:34:42;0.95;;;0.77;;
67554;SDS011;54385;53.516;49.456;2023-07-13T00:37:09;0.93;;;0.68;;
67554;SDS011;54385;53.516;49.456;2023-07-13T00:39:35;0.98;;;0.70;;
67554;SDS011;54385;53.516;49.456;2023-07-13T00:42:02;0.88;;;0.60;;
67554;SDS011;54385;53.516;49.456;2023-07-13T00:44:30;1.55;;;1.00;;
67554;SDS011;54385;53.516;49.456;2023-07-13T00:46:56;1.10;;;0.80;;
67554;SDS011;54385;53.516;49.456;2023-07-13T00:49:24;1.35;;;0.90;;
67554;SDS011;54385;53.516;49.456;2023-07-13T00:51:57;1.15;;;0.60;;
67554;SDS011;54385;53.516;49.456;2023-07-13T00:54:30;1.35;;;0.70;;
67554;SDS011;54385;53.516;49.456;2023-07-13T00:57:02;1.02;;;0.73;;
67554;SDS011;54385;53.516;49.456;2023-07-13T00:59:31;0.90;;;0.70;;
67554;SDS011;54385;53.516;49.456;2023-07-13T01:02:02;1.02;;;0.75;;
67554;SDS011;54385;53.516;49.456;2023-07-13T01:04:29;1.02;;;0.70;;
67554;SDS011;54385;53.516;49.456;2023-07-13T01:06:56;1.38;;;0.90;;
67554;SDS011;54385;53.516;49.456;2023-07-13T01:09:23;0.73;;;0.70;;
67554;SDS011;54385;53.516;49.456;2023-07-13T01:11:51;1.10;;;0.77;;
67554;SDS011;54385;53.516;49.456;2023-07-13T01:14:18;1.40;;;0.77;;
67554;SDS011;54385;53.516;49.456;2023-07-13T01:16:45;0.68;;;0.65;;
67554;SDS011;54385;53.516;49.456;2023-07-13T01:19:21;0.88;;;0.70;;
67554;SDS011;54385;53.516;49.456;2023-07-13T01:22:15;0.50;;;0.50;;
67554;SDS011;54385;53.516;49.456;2023-07-13T01:24:46;0.80;;;0.70;;
67554;SDS011;54385;53.516;49.456;2023-07-13T01:27:17;0.60;;;0.50;;
67554;SDS011;54385;53.516;49.456;2023-07-13T01:29:47;0.57;;;0.57;;
67554;SDS011;54385;53.516;49.456;2023-07-13T01:32:15;1.02;;;0.60;;
67554;SDS011;54385;53.516;49.456;2023-07-13T01:34:48;1.20;;;0.88;;
67554;SDS011;54385;53.516;49.456;2023-07-13T01:37:15;1.13;;;0.63;;
67554;SDS011;54385;53.516;49.456;2023-07-13T01:39:42;0.70;;;0.60;;
67554;SDS011;54385;53.516;49.456;2023-07-13T01:42:08;0.88;;;0.68;;
67554;SDS011;54385;53.516;49.456;2023-07-13T01:44:40;0.73;;;0.60;;
67554;SDS011;54385;53.516;49.456;2023-07-13T01:47:07;0.98;;;0.60;;
67554;SDS011;54385;53.516;49.456;2023-07-13T01:49:33;1.67;;;0.70;;
67554;SDS011;54385;53.516;49.456;2023-07-13T01:51:59;0.65;;;0.50;;
67554;SDS011;54385;53.516;49.456;2023-07-13T01:54:26;1.20;;;1.00;;
67554;SDS011;54385;53.516;49.456;2023-07-13T01:56:53;0.75;;;0.60;;
67554;SDS011;54385;53.516;49.456;2023-07-13T01:59:19;0.85;;;0.70;;
67554;SDS011;54385;53.516;49.456;2023-07-13T02:01:45;1.00;;;0.70;;
67554;SDS011;54385;53.516;49.456;2023-07-13T02:04:15;0.70;;;0.60;;
67554;SDS011;54385;53.516;49.456;2023-07-13T02:06:41;1.00;;;0.60;;
67554;SDS011;54385;53.516;49.456;2023-07-13T02:09:08;0.80;;;0.57;;
67554;SDS011;54385;53.516;49.456;2023-07-13T02:11:34;1.27;;;0.80;;
67554;SDS011;54385;53.516;49.456;2023-07-13T02:14:01;0.70;;;0.60;;
67554;SDS011;54385;53.516;49.456;2023-07-13T02:16:28;1.50;;;0.50;;
67554;SDS011;54385;53.516;49.456;2023-07-13T02:18:56;0.73;;;0.60;;
67554;SDS011;54385;53.516;49.456;2023-07-13T02:21:25;0.73;;;0.65;;
67554;SDS011;54385;53.516;49.456;2023-07-13T02:23:52;0.73;;;0.57;;
67554;SDS011;54385;53.516;49.456;2023-07-13T02:26:26;0.88;;;0.65;;
67554;SDS011;54385;53.516;49.456;2023-07-13T02:28:53;0.50;;;0.50;;
67554;SDS011;54385;53.516;49.456;2023-07-13T02:31:20;0.77;;;0.60;;
67554;SDS011;54385;53.516;49.456;2023-07-13T02:33:47;0.60;;;0.60;;
67554;SDS011;54385;53.516;49.456;2023-07-13T02:36:13;0.68;;;0.55;;
67554;SDS011;54385;53.516;49.456;2023-07-13T02:38:42;0.60;;;0.60;;
67554;SDS011;54385;53.516;49.456;2023-07-13T02:41:09;0.70;;;0.60;;
67554;SDS011;54385;53.516;49.456;2023-07-13T02:43:36;1.00;;;0.63;;
67554;SDS011;54385;53.516;49.456;2023-07-13T02:46:03;1.00;;;0.80;;
67554;SDS011;54385;53.516;49.456;2023-07-13T02:48:33;0.90;;;0.70;;
67554;SDS011;54385;53.516;49.456;2023-07-13T02:51:00;0.68;;;0.50;;
67554;SDS011;54385;53.516;49.456;2023-07-13T02:53:29;1.33;;;0.68;;
67554;SDS011;54385;53.516;49.456;2023-07-13T02:55:56;0.88;;;0.68;;
67554;SDS011;54385;53.516;49.456;2023-07-13T02:58:22;1.02;;;0.77;;
67554;SDS011;54385;53.516;49.456;2023-07-13T03:00:49;1.25;;;0.60;;
67554;SDS011;54385;53.516;49.456;2023-07-13T03:03:16;0.88;;;0.68;;
67554;SDS011;54385;53.516;49.456;2023-07-13T03:05:44;0.90;;;0.70;;
67554;SDS011;54385;53.516;49.456;2023-07-13T03:08:15;1.17;;;0.90;;
67554;SDS011;54385;53.516;49.456;2023-07-13T03:10:43;0.63;;;0.63;;
67554;SDS011;54385;53.516;49.456;2023-07-13T03:13:10;0.93;;;0.73;;
67554;SDS011;54385;53.516;49.456;2023-07-13T03:15:36;0.77;;;0.60;;
67554;SDS011;54385;53.516;49.456;2023-07-13T03:18:03;0.60;;;0.52;;
67554;SDS011;54385;53.516;49.456;2023-07-13T03:20:32;0.88;;;0.68;;
67554;SDS011;54385;53.516;49.456;2023-07-13T03:22:59;1.20;;;0.70;;
67554;SDS011;54385;53.516;49.456;2023-07-13T03:25:26;2.42;;;0.73;;
67554;SDS011;54385;53.516;49.456;2023-07-13T03:27:53;1.90;;;0.70;;
67554;SDS011;54385;53.516;49.456;2023-07-13T03:30:19;1.63;;;1.00;;
67554;SDS011;54385;53.516;49.456;2023-07-13T03:32:46;1.77;;;0.80;;
67554;SDS011;54385;53.516;49.456;2023-07-13T03:35:13;2.13;;;1.10;;
67554;SDS011;54385;53.516;49.456;2023-07-13T03:37:39;2.33;;;1.08;;
67554;SDS011;54385;53.516;49.456;2023-07-13T03:40:08;2.00;;;1.00;;
67554;SDS011;54385;53.516;49.456;2023-07-13T03:42:44;1.10;;;1.00;;
67554;SDS011;54385;53.516;49.456;2023-07-13T03:45:22;2.30;;;1.13;;
67554;SDS011;54385;53.516;49.456;2023-07-13T03:47:53;15.95;;;4.95;;
67554;SDS011;54385;53.516;49.456;2023-07-13T03:50:19;24.70;;;8.00;;
67554;SDS011;54385;53.516;49.456;2023-07-13T03:52:46;129.75;;;38.72;;
67554;SDS011;54385;53.516;49.456;2023-07-13T03:55:12;56.72;;;18.90;;
67554;SDS011;54385;53.516;49.456;2023-07-13T03:57:39;33.33;;;12.00;;
67554;SDS011;54385;53.516;49.456;2023-07-13T04:00:06;21.23;;;7.47;;
67554;SDS011;54385;53.516;49.456;2023-07-13T04:02:34;10.10;;;3.97;;
67554;SDS011;54385;53.516;49.456;2023-07-13T04:05:01;7.43;;;2.47;;
67554;SDS011;54385;53.516;49.456;2023-07-13T04:07:27;3.78;;;1.98;;
67554;SDS011;54385;53.516;49.456;2023-07-13T04:09:54;4.97;;;1.73;;
67554;SDS011;54385;53.516;49.456;2023-07-13T04:12:20;4.35;;;1.42;;
67554;SDS011;54385;53.516;49.456;2023-07-13T04:14:47;3.92;;;1.67;;
67554;SDS011;54385;53.516;49.456;2023-07-13T04:17:13;3.88;;;1.67;;
67554;SDS011;54385;53.516;49.456;2023-07-13T04:19:40;2.63;;;1.25;;
67554;SDS011;54385;53.516;49.456;2023-07-13T04:22:07;3.28;;;1.50;;
67554;SDS011;54385;53.516;49.456;2023-07-13T04:24:37;3.47;;;1.60;;
67554;SDS011;54385;53.516;49.456;2023-07-13T04:27:05;4.20;;;1.35;;
67554;SDS011;54385;53.516;49.456;2023-07-13T04:29:32;2.47;;;1.20;;
67554;SDS011;54385;53.516;49.456;2023-07-13T04:32:02;3.17;;;1.45;;
67554;SDS011;54385;53.516;49.456;2023-07-13T04:34:29;2.25;;;1.40;;
67554;SDS011;54385;53.516;49.456;2023-07-13T04:36:59;4.95;;;1.60;;
67554;SDS011;54385;53.516;49.456;2023-07-13T04:39:32;3.45;;;1.48;;
67554;SDS011;54385;53.516;49.456;2023-07-13T04:43:24;7.10;;;1.30;;
67554;SDS011;54385;53.516;49.456;2023-07-13T04:45:51;5.35;;;1.55;;
67554;SDS011;54385;53.516;49.456;2023-07-13T04:48:18;4.40;;;1.38;;
67554;SDS011;54385;53.516;49.456;2023-07-13T04:50:46;2.88;;;1.30;;
67554;SDS011;54385;53.516;49.456;2023-07-13T04:53:26;2.13;;;1.50;;
67554;SDS011;54385;53.516;49.456;2023-07-13T04:55:53;3.17;;;1.48;;
67554;SDS011;54385;53.516;49.456;2023-07-13T04:58:20;2.10;;;1.40;;
67554;SDS011;54385;53.516;49.456;2023-07-13T05:00:47;2.47;;;1.55;;
67554;SDS011;54385;53.516;49.456;2023-07-13T05:03:14;2.85;;;1.20;;
67554;SDS011;54385;53.516;49.456;2023-07-13T05:05:41;2.35;;;1.33;;
67554;SDS011;54385;53.516;49.456;2023-07-13T05:08:07;2.13;;;1.15;;
67554;SDS011;54385;53.516;49.456;2023-07-13T05:10:34;3.55;;;1.52;;
67554;SDS011;54385;53.516;49.456;2023-07-13T05:13:01;2.72;;;1.00;;
67554;SDS011;54385;53.516;49.456;2023-07-13T05:15:28;1.75;;;1.25;;
67554;SDS011;54385;53.516;49.456;2023-07-13T05:17:59;1.52;;;1.20;;
67554;SDS011;54385;53.516;49.456;2023-07-13T05:20:25;2.22;;;1.20;;
67554;SDS011;54385;53.516;49.456;2023-07-13T05:22:52;3.78;;;1.50;;
67554;SDS011;54385;53.516;49.456;2023-07-13T05:25:21;2.30;;;1.38;;
67554;SDS011;54385;53.516;49.456;2023-07-13T05:27:48;3.90;;;1.17;;
67554;SDS011;54385;53.516;49.456;2023-07-13T05:30:14;2.35;;;1.20;;
67554;SDS011;54385;53.516;49.456;2023-07-13T05:32:41;6.32;;;1.88;;
67554;SDS011;54385;53.516;49.456;2023-07-13T05:35:08;1.50;;;1.20;;
67554;SDS011;54385;53.516;49.456;2023-07-13T05:37:34;2.92;;;1.33;;
67554;SDS011;54385;53.516;49.456;2023-07-13T05:40:02;1.65;;;1.30;;
67554;SDS011;54385;53.516;49.456;2023-07-13T05:42:29;4.28;;;1.92;;
67554;SDS011;54385;53.516;49.456;2023-07-13T05:47:40;2.25;;;1.63;;
67554;SDS011;54385;53.516;49.456;2023-07-13T05:50:27;3.33;;;1.70;;
67554;SDS011;54385;53.516;49.456;2023-07-13T05:52:57;2.33;;;1.63;;
67554;SDS011;54385;53.516;49.456;2023-07-13T05:55:28;3.92;;;2.20;;
67554;SDS011;54385;53.516;49.456;2023-07-13T05:57:55;2.70;;;1.58;;
67554;SDS011;54385;53.516;49.456;2023-07-13T06:00:24;2.67;;;1.50;;
67554;SDS011;54385;53.516;49.456;2023-07-13T06:02:55;3.20;;;2.08;;
67554;SDS011;54385;53.516;49.456;2023-07-13T06:05:22;3.40;;;1.67;;
67554;SDS011;54385;53.516;49.456;2023-07-13T06:07:52;2.53;;;1.50;;
67554;SDS011;54385;53.516;49.456;2023-07-13T06:10:19;2.92;;;1.50;;
67554;SDS011;54385;53.516;49.456;2023-07-13T06:12:45;4.50;;;1.35;;
67554;SDS011;54385;53.516;49.456;2023-07-13T06:15:12;1.67;;;1.42;;
67554;SDS011;54385;53.516;49.456;2023-07-13T06:17:38;2.25;;;1.40;;
67554;SDS011;54385;53.516;49.456;2023-07-13T06:20:05;1.88;;;1.50;;
67554;SDS011;54385;53.516;49.456;2023-07-13T06:22:35;2.20;;;1.48;;
67554;SDS011;54385;53.516;49.456;2023-07-13T06:25:02;2.53;;;1.50;;
67554;SDS011;54385;53.516;49.456;2023-07-13T06:27:28;3.47;;;1.45;;
67554;SDS011;54385;53.516;49.456;2023-07-13T06:29:55;6.60;;;1.55;;
67554;SDS011;54385;53.516;49.456;2023-07-13T06:32:21;4.50;;;1.40;;
67554;SDS011;54385;53.516;49.456;2023-07-13T06:34:48;1.55;;;1.42;;
67554;SDS011;54385;53.516;49.456;2023-07-13T06:37:17;1.92;;;1.38;;
67554;SDS011;54385;53.516;49.456;2023-07-13T06:39:44;4.57;;;1.40;;
67554;SDS011;54385;53.516;49.456;2023-07-13T06:42:11;3.92;;;1.75;;
67554;SDS011;54385;53.516;49.456;2023-07-13T06:44:37;4.03;;;1.60;;
67554;SDS011;54385;53.516;49.456;2023-07-13T06:47:04;4.40;;;1.40;;
67554;SDS011;54385;53.516;49.456;2023-07-13T06:49:31;1.95;;;1.60;;
67554;SDS011;54385;53.516;49.456;2023-07-13T06:51:57;5.53;;;1.45;;
67554;SDS011;54385;53.516;49.456;2023-07-13T06:54:32;2.63;;;1.50;;
67554;SDS011;54385;53.516;49.456;2023-07-13T06:57:01;2.97;;;1.55;;
67554;SDS011;54385;53.516;49.456;2023-07-13T06:59:38;3.15;;;1.45;;
67554;SDS011;54385;53.516;49.456;2023-07-13T07:02:05;3.58;;;1.67;;
67554;SDS011;54385;53.516;49.456;2023-07-13T07:04:32;3.17;;;1.70;;
67554;SDS011;54385;53.516;49.456;2023-07-13T07:06:58;1.83;;;1.40;;
67554;SDS011;54385;53.516;49.456;2023-07-13T07:09:25;2.65;;;1.45;;
67554;SDS011;54385;53.516;49.456;2023-07-13T07:11:52;3.30;;;1.73;;
67554;SDS011;54385;53.516;49.456;2023-07-13T07:14:18;4.78;;;2.33;;
67554;SDS011;54385;53.516;49.456;2023-07-13T07:16:45;3.45;;;1.45;;
67554;SDS011;54385;53.516;49.456;2023-07-13T07:19:14;3.67;;;1.60;;
67554;SDS011;54385;53.516;49.456;2023-07-13T07:21:40;4.47;;;1.80;;
67554;SDS011;54385;53.516;49.456;2023-07-13T07:24:07;2.05;;;1.20;;
67554;SDS011;54385;53.516;49.456;2023-07-13T07:26:36;2.25;;;1.90;;
67554;SDS011;54385;53.516;49.456;2023-07-13T07:29:02;2.55;;;1.60;;
67554;SDS011;54385;53.516;49.456;2023-07-13T07:31:29;1.48;;;1.20;;
67554;SDS011;54385;53.516;49.456;2023-07-13T07:33:55;2.85;;;1.60;;
67554;SDS011;54385;53.516;49.456;2023-07-13T07:36:22;3.00;;;1.25;;
67554;SDS011;54385;53.516;49.456;2023-07-13T07:38:49;2.10;;;1.50;;
67554;SDS011;54385;53.516;49.456;2023-07-13T07:41:15;1.63;;;1.40;;
67554;SDS011;54385;53.516;49.456;2023-07-13T07:43:42;2.65;;;1.45;;
67554;SDS011;54385;53.516;49.456;2023-07-13T07:46:09;3.55;;;1.20;;
67554;SDS011;54385;53.516;49.456;2023-07-13T07:48:36;2.00;;;1.20;;
67554;SDS011;54385;53.516;49.456;2023-07-13T07:51:02;2.17;;;1.45;;
67554;SDS011;54385;53.516;49.456;2023-07-13T07:53:30;2.45;;;1.40;;
67554;SDS011;54385;53.516;49.456;2023-07-13T07:55:56;4.00;;;2.05;;
67554;SDS011;54385;53.516;49.456;2023-07-13T07:58:25;2.55;;;1.70;;
67554;SDS011;54385;53.516;49.456;2023-07-13T08:00:52;3.35;;;1.83;;
67554;SDS011;54385;53.516;49.456;2023-07-13T08:03:24;1.58;;;1.15;;
67554;SDS011;54385;53.516;49.456;2023-07-13T08:06:12;3.70;;;1.38;;
67554;SDS011;54385;53.516;49.456;2023-07-13T08:08:43;1.48;;;1.30;;
67554;SDS011;54385;53.516;49.456;2023-07-13T08:11:12;4.00;;;1.27;;
67554;SDS011;54385;53.516;49.456;2023-07-13T08:13:39;2.00;;;1.40;;
67554;SDS011;54385;53.516;49.456;2023-07-13T08:16:06;1.75;;;1.23;;
67554;SDS011;54385;53.516;49.456;2023-07-13T08:18:33;2.65;;;1.40;;
67554;SDS011;54385;53.516;49.456;2023-07-13T08:21:04;2.78;;;1.60;;
67554;SDS011;54385;53.516;49.456;2023-07-13T08:23:40;2.38;;;1.10;;
67554;SDS011;54385;53.516;49.456;2023-07-13T08:26:09;2.03;;;1.40;;
67554;SDS011;54385;53.516;49.456;2023-07-13T08:28:36;3.20;;;1.38;;
67554;SDS011;54385;53.516;49.456;2023-07-13T08:31:03;2.45;;;1.60;;
67554;SDS011;54385;53.516;49.456;2023-07-13T08:33:31;1.60;;;1.20;;
67554;SDS011;54385;53.516;49.456;2023-07-13T08:35:57;1.23;;;1.10;;
67554;SDS011;54385;53.516;49.456;2023-07-13T08:38:24;2.85;;;1.33;;
67554;SDS011;54385;53.516;49.456;2023-07-13T08:40:54;1.73;;;1.30;;
67554;SDS011;54385;53.516;49.456;2023-07-13T08:45:55;2.90;;;1.30;;
67554;SDS011;54385;53.516;49.456;2023-07-13T08:48:43;2.22;;;1.17;;
67554;SDS011;54385;53.516;49.456;2023-07-13T08:52:08;2.33;;;1.30;;
67554;SDS011;54385;53.516;49.456;2023-07-13T08:54:35;1.73;;;1.30;;
67554;SDS011;54385;53.516;49.456;2023-07-13T08:57:15;4.32;;;1.38;;
67554;SDS011;54385;53.516;49.456;2023-07-13T08:59:44;3.10;;;1.42;;
67554;SDS011;54385;53.516;49.456;2023-07-13T09:02:22;1.67;;;1.17;;
67554;SDS011;54385;53.516;49.456;2023-07-13T09:04:50;3.53;;;1.52;;
67554;SDS011;54385;53.516;49.456;2023-07-13T09:07:21;3.03;;;1.48;;
67554;SDS011;54385;53.516;49.456;2023-07-13T09:13:21;3.42;;;1.50;;
67554;SDS011;54385;53.516;49.456;2023-07-13T09:16:14;6.55;;;1.52;;
67554;SDS011;54385;53.516;49.456;2023-07-13T09:18:56;1.90;;;1.50;;
67554;SDS011;54385;53.516;49.456;2023-07-13T09:21:32;2.50;;;1.83;;
67554;SDS011;54385;53.516;49.456;2023-07-13T09:27:13;6.70;;;1.70;;
67554;SDS011;54385;53.516;49.456;2023-07-13T09:29:55;1.73;;;1.15;;
67554;SDS011;54385;53.516;49.456;2023-07-13T09:32:45;1.67;;;1.50;;
67554;SDS011;54385;53.516;49.456;2023-07-13T09:35:20;2.60;;;1.20;;
67554;SDS011;54385;53.516;49.456;2023-07-13T09:37:50;2.55;;;1.63;;
67554;SDS011;54385;53.516;49.456;2023-07-13T09:40:47;3.72;;;1.40;;
67554;SDS011;54385;53.516;49.456;2023-07-13T09:43:20;3.58;;;1.50;;
67554;SDS011;54385;53.516;49.456;2023-07-13T09:46:21;2.55;;;1.30;;
67554;SDS011;54385;53.516;49.456;2023-07-13T09:48:48;3.75;;;1.60;;
67554;SDS011;54385;53.516;49.456;2023-07-13T09:51:15;10.65;;;1.83;;
67554;SDS011;54385;53.516;49.456;2023-07-13T09:53:42;2.03;;;1.40;;
67554;SDS011;54385;53.516;49.456;2023-07-13T10:01:48;2.88;;;1.40;;
67554;SDS011;54385;53.516;49.456;2023-07-13T10:04:18;3.08;;;1.50;;
67554;SDS011;54385;53.516;49.456;2023-07-13T10:06:46;3.55;;;1.30;;
67554;SDS011;54385;53.516;49.456;2023-07-13T10:09:14;2.50;;;1.38;;
67554;SDS011;54385;53.516;49.456;2023-07-13T10:11:43;2.70;;;1.30;;
67554;SDS011;54385;53.516;49.456;2023-07-13T10:14:14;2.22;;;1.05;;
67554;SDS011;54385;53.516;49.456;2023-07-13T10:16:47;2.13;;;1.50;;
67554;SDS011;54385;53.516;49.456;2023-07-13T10:19:34;2.92;;;1.38;;
67554;SDS011;54385;53.516;49.456;2023-07-13T10:24:46;1.85;;;1.58;;
67554;SDS011;54385;53.516;49.456;2023-07-13T10:27:17;2.45;;;1.58;;
67554;SDS011;54385;53.516;49.456;2023-07-13T10:29:52;10.70;;;1.83;;
67554;SDS011;54385;53.516;49.456;2023-07-13T10:32:30;5.25;;;1.65;;
67554;SDS011;54385;53.516;49.456;2023-07-13T10:35:11;7.28;;;2.00;;
67554;SDS011;54385;53.516;49.456;2023-07-13T10:40:57;4.93;;;1.95;;
67554;SDS011;54385;53.516;49.456;2023-07-13T10:43:44;4.57;;;1.50;;
67554;SDS011;54385;53.516;49.456;2023-07-13T10:46:19;4.97;;;1.50;;
67554;SDS011;54385;53.516;49.456;2023-07-13T10:48:49;5.30;;;1.30;;
67554;SDS011;54385;53.516;49.456;2023-07-13T10:51:20;5.07;;;1.52;;
67554;SDS011;54385;53.516;49.456;2023-07-13T10:56:53;3.85;;;1.60;;
67554;SDS011;54385;53.516;49.456;2023-07-13T10:59:36;1.40;;;1.30;;
67554;SDS011;54385;53.516;49.456;2023-07-13T11:02:12;4.35;;;1.63;;
67554;SDS011;54385;53.516;49.456;2023-07-13T11:04:52;3.13;;;1.55;;
67554;SDS011;54385;53.516;49.456;2023-07-13T11:07:27;2.85;;;1.30;;
67554;SDS011;54385;53.516;49.456;2023-07-13T11:09:58;2.97;;;1.15;;
67554;SDS011;54385;53.516;49.456;2023-07-13T11:15:31;2.78;;;1.45;;
67554;SDS011;54385;53.516;49.456;2023-07-13T11:18:22;2.17;;;1.20;;
67554;SDS011;54385;53.516;49.456;2023-07-13T11:20:50;1.70;;;1.30;;
67554;SDS011;54385;53.516;49.456;2023-07-13T11:23:19;4.45;;;1.55;;
67554;SDS011;54385;53.516;49.456;2023-07-13T11:25:57;1.88;;;1.38;;
67554;SDS011;54385;53.516;49.456;2023-07-13T11:28:25;4.10;;;1.23;;
67554;SDS011;54385;53.516;49.456;2023-07-13T11:33:28;5.88;;;1.52;;
67554;SDS011;54385;53.516;49.456;2023-07-13T11:36:05;4.10;;;1.20;;
67554;SDS011;54385;53.516;49.456;2023-07-13T11:38:41;2.13;;;1.20;;
67554;SDS011;54385;53.516;49.456;2023-07-13T11:43:53;1.38;;;1.15;;
67554;SDS011;54385;53.516;49.456;2023-07-13T11:46:24;2.47;;;1.25;;
67554;SDS011;54385;53.516;49.456;2023-07-13T11:48:55;4.00;;;1.25;;
67554;SDS011;54385;53.516;49.456;2023-07-13T11:51:25;2.08;;;1.30;;
67554;SDS011;54385;53.516;49.456;2023-07-13T11:53:58;1.60;;;1.05;;
67554;SDS011;54385;53.516;49.456;2023-07-13T11:56:28;1.63;;;1.10;;
67554;SDS011;54385;53.516;49.456;2023-07-13T11:58:56;1.25;;;1.00;;
67554;SDS011;54385;53.516;49.456;2023-07-13T12:01:28;3.15;;;1.10;;
67554;SDS011;54385;53.516;49.456;2023-07-13T12:04:02;1.10;;;1.00;;
67554;SDS011;54385;53.516;49.456;2023-07-13T12:06:30;1.85;;;1.10;;
67554;SDS011;54385;53.516;49.456;2023-07-13T12:09:13;3.08;;;1.10;;
67554;SDS011;54385;53.516;49.456;2023-07-13T12:11:48;1.60;;;1.10;;
67554;SDS011;54385;53.516;49.456;2023-07-13T12:14:28;1.42;;;1.05;;
67554;SDS011;54385;53.516;49.456;2023-07-13T12:16:54;1.30;;;1.02;;
67554;SDS011;54385;53.516;49.456;2023-07-13T12:19:23;1.25;;;1.10;;
67554;SDS011;54385;53.516;49.456;2023-07-13T12:21:56;1.15;;;0.93;;
67554;SDS011;54385;53.516;49.456;2023-07-13T12:24:24;1.88;;;1.05;;
67554;SDS011;54385;53.516;49.456;2023-07-13T12:30:32;1.63;;;1.00;;
67554;SDS011;54385;53.516;49.456;2023-07-13T12:33:27;1.40;;;1.00;;
67554;SDS011;54385;53.516;49.456;2023-07-13T12:35:55;2.20;;;1.17;;
67554;SDS011;54385;53.516;49.456;2023-07-13T12:38:24;1.00;;;0.80;;
67554;SDS011;54385;53.516;49.456;2023-07-13T12:40:51;2.55;;;1.00;;
67554;SDS011;54385;53.516;49.456;2023-07-13T12:43:22;1.05;;;0.95;;
67554;SDS011;54385;53.516;49.456;2023-07-13T12:46:00;2.20;;;1.17;;
67554;SDS011;54385;53.516;49.456;2023-07-13T12:48:29;1.50;;;1.10;;
67554;SDS011;54385;53.516;49.456;2023-07-13T12:51:12;1.23;;;1.10;;
67554;SDS011;54385;53.516;49.456;2023-07-13T12:56:19;2.33;;;1.20;;
67554;SDS011;54385;53.516;49.456;2023-07-13T12:58:49;1.58;;;1.00;;
67554;SDS011;54385;53.516;49.456;2023-07-13T13:01:23;2.72;;;1.00;;
67554;SDS011;54385;53.516;49.456;2023-07-13T13:03:54;2.28;;;1.20;;
67554;SDS011;54385;53.516;49.456;2023-07-13T13:06:24;1.40;;;1.30;;
67554;SDS011;54385;53.516;49.456;2023-07-13T13:08:56;1.08;;;0.98;;
67554;SDS011;54385;53.516;49.456;2023-07-13T13:11:24;1.58;;;1.13;;
67554;SDS011;54385;53.516;49.456;2023-07-13T13:13:53;1.90;;;1.25;;
67554;SDS011;54385;53.516;49.456;2023-07-13T13:18:59;1.90;;;1.08;;
67554;SDS011;54385;53.516;49.456;2023-07-13T13:21:38;1.85;;;1.00;;
67554;SDS011;54385;53.516;49.456;2023-07-13T13:24:15;1.45;;;1.20;;
67554;SDS011;54385;53.516;49.456;2023-07-13T13:26:43;2.30;;;1.33;;
67554;SDS011;54385;53.516;49.456;2023-07-13T13:29:17;1.48;;;1.27;;
67554;SDS011;54385;53.516;49.456;2023-07-13T13:31:46;2.00;;;1.20;;
67554;SDS011;54385;53.516;49.456;2023-07-13T13:34:14;2.05;;;1.20;;
67554;SDS011;54385;53.516;49.456;2023-07-13T13:36:42;1.73;;;1.30;;
67554;SDS011;54385;53.516;49.456;2023-07-13T13:41:50;1.88;;;1.30;;
67554;SDS011;54385;53.516;49.456;2023-07-13T13:44:18;1.58;;;1.30;;
67554;SDS011;54385;53.516;49.456;2023-07-13T13:46:47;2.35;;;1.42;;
67554;SDS011;54385;53.516;49.456;2023-07-13T13:49:21;1.27;;;1.05;;
67554;SDS011;54385;53.516;49.456;2023-07-13T13:51:56;1.17;;;1.02;;
67554;SDS011;54385;53.516;49.456;2023-07-13T13:54:35;2.70;;;1.40;;
67554;SDS011;54385;53.516;49.456;2023-07-13T13:57:02;1.48;;;1.17;;
67554;SDS011;54385;53.516;49.456;2023-07-13T13:59:28;1.77;;;1.10;;
67554;SDS011;54385;53.516;49.456;2023-07-13T14:01:55;1.67;;;1.20;;
67554;SDS011;54385;53.516;49.456;2023-07-13T14:04:22;1.55;;;1.20;;
67554;SDS011;54385;53.516;49.456;2023-07-13T14:06:48;1.63;;;1.10;;
67554;SDS011;54385;53.516;49.456;2023-07-13T14:09:16;1.02;;;0.93;;
67554;SDS011;54385;53.516;49.456;2023-07-13T14:11:45;1.60;;;1.10;;
67554;SDS011;54385;53.516;49.456;2023-07-13T14:14:17;2.53;;;1.23;;
67554;SDS011;54385;53.516;49.456;2023-07-13T14:16:49;1.20;;;1.00;;
67554;SDS011;54385;53.516;49.456;2023-07-13T14:19:21;1.92;;;1.25;;
67554;SDS011;54385;53.516;49.456;2023-07-13T14:21:48;1.20;;;1.10;;
67554;SDS011;54385;53.516;49.456;2023-07-13T14:24:29;1.38;;;1.00;;
67554;SDS011;54385;53.516;49.456;2023-07-13T14:26:56;1.15;;;1.00;;
67554;SDS011;54385;53.516;49.456;2023-07-13T14:29:37;1.42;;;1.33;;
67554;SDS011;54385;53.516;49.456;2023-07-13T14:32:05;1.40;;;1.30;;
67554;SDS011;54385;53.516;49.456;2023-07-13T14:34:37;1.42;;;1.15;;
67554;SDS011;54385;53.516;49.456;2023-07-13T14:37:27;1.73;;;1.40;;
67554;SDS011;54385;53.516;49.456;2023-07-13T14:43:03;1.25;;;1.15;;
67554;SDS011;54385;53.516;49.456;2023-07-13T14:45:50;1.13;;;1.02;;
67554;SDS011;54385;53.516;49.456;2023-07-13T14:48:20;1.73;;;1.23;;
67554;SDS011;54385;53.516;49.456;2023-07-13T14:51:04;1.20;;;1.00;;
67554;SDS011;54385;53.516;49.456;2023-07-13T14:53:33;1.55;;;1.10;;
67554;SDS011;54385;53.516;49.456;2023-07-13T14:56:16;1.20;;;1.00;;
67554;SDS011;54385;53.516;49.456;2023-07-13T14:58:46;1.30;;;1.10;;
67554;SDS011;54385;53.516;49.456;2023-07-13T15:04:15;1.40;;;1.20;;
67554;SDS011;54385;53.516;49.456;2023-07-13T15:06:56;2.25;;;1.30;;
67554;SDS011;54385;53.516;49.456;2023-07-13T15:09:40;1.20;;;1.10;;
67554;SDS011;54385;53.516;49.456;2023-07-13T15:12:26;1.42;;;1.20;;
67554;SDS011;54385;53.516;49.456;2023-07-13T15:14:58;2.22;;;1.10;;
67554;SDS011;54385;53.516;49.456;2023-07-13T15:20:33;1.48;;;1.10;;
67554;SDS011;54385;53.516;49.456;2023-07-13T15:23:13;1.25;;;0.95;;
67554;SDS011;54385;53.516;49.456;2023-07-13T15:25:42;2.00;;;1.10;;
67554;SDS011;54385;53.516;49.456;2023-07-13T15:28:18;2.80;;;1.30;;
67554;SDS011;54385;53.516;49.456;2023-07-13T15:30:57;1.17;;;0.95;;
67554;SDS011;54385;53.516;49.456;2023-07-13T15:33:35;1.20;;;1.10;;
67554;SDS011;54385;53.516;49.456;2023-07-13T15:36:48;1.73;;;1.00;;
67554;SDS011;54385;53.516;49.456;2023-07-13T15:39:23;1.70;;;1.13;;
67554;SDS011;54385;53.516;49.456;2023-07-13T15:42:03;1.42;;;1.02;;
67554;SDS011;54385;53.516;49.456;2023-07-13T15:44:48;1.30;;;1.02;;
67554;SDS011;54385;53.516;49.456;2023-07-13T15:47:18;1.33;;;1.10;;
67554;SDS011;54385;53.516;49.456;2023-07-13T15:49:59;1.17;;;1.00;;
67554;SDS011;54385;53.516;49.456;2023-07-13T15:52:55;1.17;;;0.98;;